Time;durP1;ratioP1;P1;durP2;ratioP2;P2;SDS_P1;SDS_P2;PMS_P1;PMS_P2;Temp;Humidity;BMP_temperature;BMP_pressure;BME280_temperature;BME280_humidity;BME280_pressure;Samples;Min_cycle;Max_cycle;Signal;HPM_P1;HPM_P2
2022/10/12 00:00:55;;;;;;;2.28;1.30;;;15.30;64.60;;;;;;5074203;28;20059;-75
2022/10/12 00:03:22;;;;;;;1.85;1.35;;;15.30;64.60;;;;;;5074993;28;20127;-75
2022/10/12 00:05:50;;;;;;;1.83;1.38;;;15.30;64.60;;;;;;5074097;28;20135;-75
2022/10/12 00:08:17;;;;;;;2.35;1.33;;;15.30;64.60;;;;;;5072767;28;20052;-74
2022/10/12 00:10:44;;;;;;;2.28;1.40;;;15.30;64.60;;;;;;5073864;28;20067;-75
2022/10/12 00:13:11;;;;;;;1.42;1.20;;;15.30;64.50;;;;;;5074261;28;20414;-73
2022/10/12 00:15:38;;;;;;;2.42;1.50;;;15.30;64.50;;;;;;5073931;28;20135;-72
2022/10/12 00:18:06;;;;;;;1.98;1.30;;;15.30;64.50;;;;;;5073675;28;20140;-72
2022/10/12 00:20:33;;;;;;;2.40;1.30;;;15.30;64.50;;;;;;5073503;28;20052;-73
2022/10/12 00:23:00;;;;;;;1.88;1.30;;;15.30;64.50;;;;;;5073212;28;20131;-72
2022/10/12 00:25:27;;;;;;;1.83;1.20;;;15.20;64.40;;;;;;5074024;28;20048;-72
2022/10/12 00:27:53;;;;;;;1.83;1.40;;;15.30;64.40;;;;;;5073396;28;20071;-73
2022/10/12 00:30:20;;;;;;;1.73;1.25;;;15.20;64.40;;;;;;5073513;28;20056;-72
2022/10/12 00:32:50;;;;;;;2.33;1.30;;;15.20;64.40;;;;;;5074249;28;20059;-73
2022/10/12 00:35:18;;;;;;;1.95;1.25;;;15.30;64.40;;;;;;5073462;28;20049;-72
2022/10/12 00:37:45;;;;;;;2.38;1.40;;;15.30;64.40;;;;;;5073866;28;20052;-72
2022/10/12 00:40:12;;;;;;;1.60;1.30;;;15.20;64.30;;;;;;5073125;28;20052;-72
2022/10/12 00:42:39;;;;;;;1.55;1.23;;;15.30;64.40;;;;;;5073300;28;20075;-72
2022/10/12 00:45:06;;;;;;;1.90;1.20;;;15.10;67.20;;;;;;5073183;28;20055;-72
2022/10/12 00:47:34;;;;;;;3.05;1.50;;;15.20;64.30;;;;;;5073293;28;20055;-72
2022/10/12 00:50:03;;;;;;;1.40;1.30;;;15.20;64.30;;;;;;5073055;28;20494;-72
2022/10/12 00:52:35;;;;;;;1.52;1.17;;;15.20;64.20;;;;;;5073284;28;20504;-73
2022/10/12 00:55:01;;;;;;;2.17;1.30;;;14.50;66.60;;;;;;5071931;28;20063;-72
2022/10/12 00:57:28;;;;;;;3.15;1.20;;;15.20;64.20;;;;;;5073400;28;20059;-73
2022/10/12 00:59:56;;;;;;;1.45;1.17;;;15.20;64.20;;;;;;5072678;28;20056;-73
2022/10/12 01:02:23;;;;;;;1.60;1.25;;;15.20;64.20;;;;;;5072487;28;20066;-73
2022/10/12 01:04:49;;;;;;;1.73;1.42;;;15.20;64.20;;;;;;5072834;28;20056;-73
2022/10/12 01:07:16;;;;;;;1.50;1.17;;;15.20;64.20;;;;;;5072925;28;20109;-73
2022/10/12 01:09:44;;;;;;;2.03;1.20;;;15.20;64.20;;;;;;5072863;28;20056;-73
2022/10/12 01:12:11;;;;;;;1.58;1.20;;;15.10;64.10;;;;;;5072491;28;20486;-73
2022/10/12 01:14:38;;;;;;;1.50;1.30;;;15.10;64.10;;;;;;5072635;28;20080;-73
2022/10/12 01:17:09;;;;;;;1.80;1.40;;;15.10;64.10;;;;;;5072917;28;20048;-73
2022/10/12 01:20:22;;;;;;;1.40;1.10;;;15.10;64.10;;;;;;5072736;28;20091;-73
2022/10/12 01:22:53;;;;;;;1.50;1.25;;;15.10;64.00;;;;;;5072720;28;20048;-73
2022/10/12 01:25:28;;;;;;;2.13;1.20;;;15.10;64.20;;;;;;5072028;28;20549;-73
2022/10/12 01:27:55;;;;;;;1.67;1.20;;;15.10;64.10;;;;;;5052919;28;20052;-73
2022/10/12 01:30:23;;;;;;;1.70;1.58;;;15.10;64.10;;;;;;5052170;28;20059;-73
2022/10/12 01:33:05;;;;;;;1.52;1.20;;;15.10;64.10;;;;;;5052716;28;20514;-73
2022/10/12 01:35:36;;;;;;;2.78;1.23;;;15.10;64.00;;;;;;5052571;28;20061;-73
2022/10/12 01:38:07;;;;;;;1.77;1.20;;;15.10;64.10;;;;;;5053269;28;20059;-73
2022/10/12 01:40:35;;;;;;;1.33;1.20;;;15.10;64.10;;;;;;5064023;28;20063;-73
2022/10/12 01:43:03;;;;;;;1.83;1.27;;;15.00;64.00;;;;;;5072028;28;20059;-73
2022/10/12 01:45:31;;;;;;;1.58;1.20;;;15.00;64.00;;;;;;5072349;28;20058;-73
2022/10/12 01:47:58;;;;;;;1.42;1.20;;;15.00;63.90;;;;;;5072022;28;20125;-73
2022/10/12 01:50:27;;;;;;;3.70;1.40;;;15.10;64.00;;;;;;5071741;28;20056;-73
2022/10/12 01:52:59;;;;;;;1.50;1.17;;;15.00;63.90;;;;;;5072089;28;20052;-73
2022/10/12 01:55:37;;;;;;;1.70;1.17;;;15.00;63.90;;;;;;5072243;28;20409;-73
2022/10/12 01:58:27;;;;;;;1.50;1.30;;;15.00;63.90;;;;;;5071646;28;20488;-73
2022/10/12 02:00:59;;;;;;;1.40;1.27;;;15.00;63.90;;;;;;5071647;28;20421;-73
2022/10/12 02:03:29;;;;;;;1.30;1.10;;;15.00;64.00;;;;;;5071539;28;20048;-73
2022/10/12 02:05:57;;;;;;;1.70;1.25;;;15.00;64.00;;;;;;5071659;28;20055;-73
2022/10/12 02:08:25;;;;;;;1.50;1.20;;;15.00;64.00;;;;;;5071318;28;20063;-73
2022/10/12 02:10:54;;;;;;;1.45;1.00;;;15.00;63.90;;;;;;5071593;28;20063;-73
2022/10/12 02:13:22;;;;;;;1.45;1.10;;;15.00;63.90;;;;;;5071806;28;20071;-73
2022/10/12 02:15:50;;;;;;;1.75;1.15;;;15.00;63.90;;;;;;5054946;28;20057;-73
2022/10/12 02:18:18;;;;;;;1.48;1.10;;;15.00;63.90;;;;;;5071410;28;20135;-73
2022/10/12 02:20:46;;;;;;;1.52;1.10;;;15.00;63.90;;;;;;5071444;28;20523;-73
2022/10/12 02:23:12;;;;;;;1.98;1.23;;;15.00;63.90;;;;;;5071260;28;20048;-73
2022/10/12 02:25:39;;;;;;;1.20;1.08;;;14.90;63.80;;;;;;5071198;28;20056;-73
2022/10/12 02:28:09;;;;;;;1.30;1.20;;;15.00;63.90;;;;;;5071435;28;20056;-73
2022/10/12 02:30:37;;;;;;;1.75;1.20;;;15.00;63.90;;;;;;5071006;28;20518;-73
2022/10/12 02:33:06;;;;;;;1.42;1.20;;;14.90;63.80;;;;;;5072569;28;20405;-73
2022/10/12 02:35:36;;;;;;;1.38;1.25;;;14.90;63.80;;;;;;5071344;28;20135;-73
2022/10/12 02:38:07;;;;;;;2.20;1.30;;;14.90;63.80;;;;;;5070972;28;20061;-73
2022/10/12 02:40:35;;;;;;;1.48;1.10;;;14.90;63.70;;;;;;5070748;28;20052;-73
2022/10/12 02:43:04;;;;;;;1.20;1.10;;;14.90;63.70;;;;;;5070803;28;20059;-73
2022/10/12 02:45:31;;;;;;;1.60;1.23;;;14.90;63.70;;;;;;5070976;28;20443;-73
2022/10/12 02:47:58;;;;;;;2.17;1.33;;;14.20;66.30;;;;;;5070869;28;20048;-73
2022/10/12 02:50:24;;;;;;;1.85;1.40;;;14.90;63.70;;;;;;5070859;28;20059;-73
2022/10/12 02:52:53;;;;;;;1.52;1.20;;;14.90;63.70;;;;;;5070650;28;20500;-73
2022/10/12 02:55:19;;;;;;;2.17;1.25;;;14.90;63.80;;;;;;5070956;28;20056;-73
2022/10/12 02:57:46;;;;;;;3.75;1.40;;;14.80;63.70;;;;;;5071036;28;20052;-73
2022/10/12 03:00:13;;;;;;;1.40;1.17;;;14.90;63.70;;;;;;5070572;28;20404;-73
2022/10/12 03:02:40;;;;;;;1.67;1.20;;;14.90;63.70;;;;;;5070754;28;20058;-73
2022/10/12 03:05:07;;;;;;;1.30;1.10;;;14.80;63.60;;;;;;5070727;28;20048;-73
2022/10/12 03:07:34;;;;;;;1.63;1.15;;;14.90;63.70;;;;;;5071771;28;20420;-73
2022/10/12 03:10:02;;;;;;;2.13;1.30;;;14.90;63.60;;;;;;5070536;28;20052;-73
2022/10/12 03:12:29;;;;;;;1.63;1.20;;;14.90;63.60;;;;;;5070717;28;20082;-73
2022/10/12 03:14:55;;;;;;;2.45;1.50;;;14.90;63.60;;;;;;5071680;28;20048;-73
2022/10/12 03:17:22;;;;;;;3.17;1.30;;;14.90;63.60;;;;;;5070688;28;20066;-73
2022/10/12 03:19:49;;;;;;;1.45;1.20;;;14.80;63.50;;;;;;5070153;28;20059;-73
2022/10/12 03:22:16;;;;;;;1.50;1.30;;;14.80;63.50;;;;;;5070202;28;20512;-73
2022/10/12 03:24:42;;;;;;;2.25;1.35;;;14.80;63.60;;;;;;5070229;28;20066;-73
2022/10/12 03:27:10;;;;;;;1.80;1.30;;;14.80;63.50;;;;;;5070780;28;20059;-73
2022/10/12 03:29:37;;;;;;;1.73;1.17;;;14.80;63.40;;;;;;5070360;28;20061;-73
2022/10/12 03:32:04;;;;;;;1.25;1.10;;;14.80;63.50;;;;;;5071657;28;20052;-73
2022/10/12 03:34:31;;;;;;;1.45;1.20;;;14.80;63.50;;;;;;5070209;28;20062;-73
2022/10/12 03:36:58;;;;;;;1.33;1.10;;;14.80;63.50;;;;;;5070674;28;20063;-73
2022/10/12 03:39:24;;;;;;;2.88;1.17;;;14.80;63.50;;;;;;5071497;28;20078;-73
2022/10/12 03:41:51;;;;;;;1.83;1.40;;;14.80;63.40;;;;;;5070586;28;20049;-73
2022/10/12 03:44:19;;;;;;;2.40;1.30;;;14.80;63.50;;;;;;5071513;28;20051;-73
2022/10/12 03:46:46;;;;;;;1.67;1.33;;;14.80;63.50;;;;;;5070424;28;20053;-73
2022/10/12 03:49:12;;;;;;;1.40;1.20;;;14.80;63.50;;;;;;5070621;28;20067;-73
2022/10/12 03:51:39;;;;;;;2.00;1.30;;;14.80;63.40;;;;;;5071578;28;20070;-73
2022/10/12 03:54:06;;;;;;;2.10;1.20;;;14.70;63.40;;;;;;5069625;28;20051;-73
2022/10/12 03:56:32;;;;;;;1.42;1.30;;;14.80;63.40;;;;;;5070540;28;20063;-73
2022/10/12 03:58:59;;;;;;;1.50;1.35;;;14.70;63.40;;;;;;5071593;28;20482;-73
2022/10/12 04:01:27;;;;;;;1.48;1.20;;;14.80;63.40;;;;;;5070140;28;20076;-73
2022/10/12 04:03:54;;;;;;;2.13;1.27;;;14.80;63.40;;;;;;5070058;28;20058;-73
2022/10/12 04:06:20;;;;;;;1.60;1.27;;;14.80;63.40;;;;;;5070083;28;20095;-73
2022/10/12 04:08:47;;;;;;;1.20;1.10;;;14.80;66.50;;;;;;5070105;28;20054;-73
2022/10/12 04:11:15;;;;;;;1.60;1.30;;;14.70;63.90;;;;;;5069943;28;20063;-73
2022/10/12 04:13:42;;;;;;;1.73;1.25;;;14.70;63.40;;;;;;5070300;28;20072;-73
2022/10/12 04:16:09;;;;;;;3.08;1.30;;;14.70;63.40;;;;;;5071512;28;20486;-73
2022/10/12 04:18:37;;;;;;;1.80;1.38;;;14.70;63.40;;;;;;5069872;28;20052;-73
2022/10/12 04:21:12;;;;;;;1.70;1.25;;;14.70;63.40;;;;;;5069733;28;20465;-73
2022/10/12 04:23:39;;;;;;;2.45;1.40;;;14.70;63.30;;;;;;5070084;28;20049;-73
2022/10/12 04:26:06;;;;;;;1.88;1.40;;;14.70;63.40;;;;;;5071092;28;20072;-73
2022/10/12 04:28:32;;;;;;;1.60;1.30;;;14.60;63.30;;;;;;5070192;28;20460;-72
2022/10/12 04:30:59;;;;;;;3.03;1.30;;;14.70;63.40;;;;;;5073661;28;20063;-72
2022/10/12 04:33:26;;;;;;;2.03;1.45;;;14.70;63.40;;;;;;5074299;28;20496;-72
2022/10/12 04:35:54;;;;;;;3.03;1.55;;;14.60;63.40;;;;;;5073287;28;20052;-72
2022/10/12 04:38:21;;;;;;;1.40;1.27;;;14.70;63.30;;;;;;5073898;28;20059;-72
2022/10/12 04:40:47;;;;;;;1.70;1.30;;;14.70;63.30;;;;;;5074579;28;20052;-72
2022/10/12 04:43:14;;;;;;;2.67;1.30;;;14.60;63.30;;;;;;5074692;28;20052;-72
2022/10/12 04:45:41;;;;;;;3.78;1.50;;;14.60;63.30;;;;;;5074582;28;20405;-72
2022/10/12 04:48:07;;;;;;;2.05;1.40;;;14.60;63.30;;;;;;5074513;28;20044;-72
2022/10/12 04:50:34;;;;;;;2.65;1.60;;;14.60;63.30;;;;;;5072810;28;20053;-72
2022/10/12 04:53:02;;;;;;;2.75;1.30;;;14.60;63.30;;;;;;5073059;28;20473;-71
2022/10/12 04:55:29;;;;;;;2.20;1.40;;;14.60;63.30;;;;;;5074045;28;20051;-72
2022/10/12 04:57:55;;;;;;;1.90;1.38;;;14.60;63.20;;;;;;5073096;28;20052;-72
2022/10/12 05:00:22;;;;;;;2.22;1.40;;;14.60;63.20;;;;;;5072285;28;20489;-72
2022/10/12 05:02:49;;;;;;;1.60;1.42;;;14.60;63.20;;;;;;5073575;28;20040;-72
2022/10/12 05:05:16;;;;;;;3.15;1.70;;;14.60;63.20;;;;;;5073415;28;20052;-72
2022/10/12 05:07:43;;;;;;;2.35;1.80;;;14.70;66.70;;;;;;5069393;28;20052;-72
2022/10/12 05:10:11;;;;;;;3.28;1.70;;;14.60;63.30;;;;;;5073138;28;20040;-71
2022/10/12 05:12:37;;;;;;;1.75;1.30;;;14.60;63.20;;;;;;5072697;28;20048;-72
2022/10/12 05:15:05;;;;;;;2.05;1.48;;;14.60;63.30;;;;;;5070098;28;20408;-72
2022/10/12 05:17:32;;;;;;;2.05;1.50;;;14.60;63.30;;;;;;5071532;28;20048;-71
2022/10/12 05:20:01;;;;;;;3.47;1.60;;;14.60;63.30;;;;;;5071505;28;20051;-72
2022/10/12 05:22:28;;;;;;;2.42;1.55;;;14.60;63.30;;;;;;5069559;28;20127;-71
2022/10/12 05:24:54;;;;;;;2.65;1.40;;;14.50;63.30;;;;;;5073754;28;20040;-71
2022/10/12 05:27:22;;;;;;;1.95;1.40;;;14.50;63.30;;;;;;5072395;28;20417;-71
2022/10/12 05:29:49;;;;;;;3.38;1.30;;;14.50;63.30;;;;;;5069342;28;20051;-72
2022/10/12 05:32:16;;;;;;;2.65;1.33;;;14.50;63.30;;;;;;5072298;28;20055;-72
2022/10/12 05:34:43;;;;;;;2.72;1.73;;;14.50;63.40;;;;;;5071930;28;20053;-71
2022/10/12 05:37:10;;;;;;;1.75;1.25;;;14.50;63.40;;;;;;5073138;28;20554;-71
2022/10/12 05:39:36;;;;;;;2.55;1.70;;;15.00;67.20;;;;;;5073239;28;20056;-72
2022/10/12 05:42:03;;;;;;;1.95;1.40;;;14.50;63.50;;;;;;5071860;28;20059;-72
2022/10/12 05:44:31;;;;;;;1.80;1.42;;;14.50;63.50;;;;;;5071141;28;20505;-73
2022/10/12 05:46:58;;;;;;;2.33;1.42;;;14.50;63.50;;;;;;5072327;28;20062;-73
2022/10/12 05:49:25;;;;;;;2.63;1.42;;;14.50;63.50;;;;;;5071851;28;20067;-74
2022/10/12 05:51:52;;;;;;;1.73;1.30;;;14.50;63.50;;;;;;5072219;28;20404;-73
2022/10/12 05:54:18;;;;;;;2.42;1.48;;;14.50;63.60;;;;;;5071645;28;20055;-73
2022/10/12 05:56:45;;;;;;;2.25;1.50;;;14.50;63.50;;;;;;5072154;28;20062;-73
2022/10/12 05:59:12;;;;;;;2.08;1.50;;;14.50;65.50;;;;;;5072076;28;20054;-73
2022/10/12 06:01:40;;;;;;;2.53;1.38;;;14.40;66.50;;;;;;5072658;28;20048;-73
2022/10/12 06:04:06;;;;;;;2.85;1.60;;;14.50;63.50;;;;;;5071968;28;20041;-73
2022/10/12 06:06:33;;;;;;;2.38;1.60;;;14.50;63.50;;;;;;5072487;28;20052;-73
2022/10/12 06:09:00;;;;;;;2.17;1.55;;;14.50;65.50;;;;;;5071839;28;20135;-73
2022/10/12 06:11:26;;;;;;;3.25;1.70;;;14.50;66.90;;;;;;5071596;28;20135;-72
2022/10/12 06:13:53;;;;;;;1.88;1.40;;;14.50;63.50;;;;;;5071661;28;20429;-72
2022/10/12 06:16:20;;;;;;;2.10;1.40;;;14.50;63.60;;;;;;5071443;28;20493;-72
2022/10/12 06:18:48;;;;;;;3.20;1.50;;;14.40;67.10;;;;;;5071758;28;20055;-73
2022/10/12 06:21:15;;;;;;;2.38;1.63;;;14.50;63.50;;;;;;5071183;28;20056;-73
2022/10/12 06:23:42;;;;;;;3.10;1.83;;;14.60;67.30;;;;;;5070942;28;20464;-73
2022/10/12 06:26:08;;;;;;;2.38;1.70;;;14.50;63.60;;;;;;5071326;28;20058;-73
2022/10/12 06:28:35;;;;;;;2.13;1.60;;;14.50;63.60;;;;;;5071413;28;20143;-73
2022/10/12 06:31:02;;;;;;;2.65;1.50;;;14.50;63.60;;;;;;5072165;28;20071;-73
2022/10/12 06:33:28;;;;;;;2.13;1.38;;;14.50;63.60;;;;;;5071391;28;20443;-72
2022/10/12 06:35:56;;;;;;;2.22;1.65;;;14.40;66.90;;;;;;5069206;28;20068;-72
2022/10/12 06:38:23;;;;;;;2.22;1.52;;;15.30;67.50;;;;;;5070713;28;20060;-74
2022/10/12 06:40:51;;;;;;;3.17;1.70;;;13.50;66.50;;;;;;5070762;28;20485;-75
2022/10/12 06:43:18;;;;;;;2.35;1.50;;;14.50;63.50;;;;;;5069857;28;20580;-75
2022/10/12 06:45:44;;;;;;;2.63;1.70;;;14.50;63.60;;;;;;5071029;28;20094;-75
2022/10/12 06:48:11;;;;;;;2.40;1.40;;;14.50;63.60;;;;;;5072366;28;20503;-75
2022/10/12 06:50:38;;;;;;;2.60;1.60;;;14.50;63.60;;;;;;5070888;28;20131;-72
2022/10/12 06:53:06;;;;;;;2.53;1.50;;;14.50;63.60;;;;;;5070309;28;20056;-75
2022/10/12 06:55:33;;;;;;;2.83;1.63;;;14.60;63.60;;;;;;5071361;28;20518;-75
2022/10/12 06:58:00;;;;;;;2.10;1.35;;;14.50;63.60;;;;;;5070861;28;20044;-75
2022/10/12 07:00:26;;;;;;;2.80;1.45;;;14.60;63.60;;;;;;5070859;28;20497;-74
2022/10/12 07:02:53;;;;;;;2.47;1.60;;;14.60;63.60;;;;;;5070313;28;20064;-74
2022/10/12 07:05:21;;;;;;;2.17;1.70;;;14.60;63.60;;;;;;5070573;28;20048;-75
2022/10/12 07:07:47;;;;;;;2.92;1.63;;;14.70;63.60;;;;;;5069912;28;20056;-74
2022/10/12 07:10:16;;;;;;;2.30;1.55;;;14.70;63.60;;;;;;5070819;28;20052;-74
2022/10/12 07:12:43;;;;;;;2.70;1.60;;;14.70;63.50;;;;;;5070503;28;20277;-74
2022/10/12 07:15:10;;;;;;;2.33;1.67;;;14.70;63.50;;;;;;5070770;28;20106;-74
2022/10/12 07:17:37;;;;;;;1.90;1.50;;;14.80;63.50;;;;;;5070567;28;20477;-73
2022/10/12 07:20:04;;;;;;;3.13;1.73;;;14.80;63.50;;;;;;5069194;28;20052;-72
2022/10/12 07:22:31;;;;;;;2.40;1.58;;;14.90;63.50;;;;;;5070522;28;20094;-74
2022/10/12 07:24:57;;;;;;;2.65;1.52;;;14.90;63.40;;;;;;5070378;28;20059;-72
2022/10/12 07:27:26;;;;;;;2.45;1.80;;;15.00;63.50;;;;;;5070002;28;20062;-71
2022/10/12 07:29:52;;;;;;;2.33;1.50;;;15.00;63.40;;;;;;5070126;28;20135;-77
2022/10/12 07:32:19;;;;;;;2.05;1.70;;;15.10;63.40;;;;;;5070053;28;20567;-74
2022/10/12 07:34:46;;;;;;;3.45;1.60;;;15.10;63.30;;;;;;5070365;28;20508;-72
2022/10/12 07:37:14;;;;;;;2.10;1.50;;;15.10;63.30;;;;;;5071100;28;20055;-72
2022/10/12 07:39:41;;;;;;;2.20;1.50;;;15.20;63.30;;;;;;5070275;28;20109;-72
2022/10/12 07:42:08;;;;;;;2.58;1.55;;;15.20;63.20;;;;;;5070381;28;20056;-73
2022/10/12 07:44:36;;;;;;;3.85;1.80;;;15.10;66.20;;;;;;5069980;28;20049;-72
2022/10/12 07:47:03;;;;;;;2.35;1.60;;;15.20;63.20;;;;;;5069435;28;20048;-73
2022/10/12 07:49:30;;;;;;;2.70;1.70;;;15.30;63.20;;;;;;5069781;28;20088;-73
2022/10/12 07:51:56;;;;;;;2.20;1.60;;;15.30;63.20;;;;;;5071264;28;20420;-73
2022/10/12 07:54:23;;;;;;;3.13;1.83;;;15.30;63.20;;;;;;5070393;28;20049;-73
2022/10/12 07:56:50;;;;;;;3.58;1.60;;;15.30;63.20;;;;;;5070089;28;20063;-73
2022/10/12 07:59:17;;;;;;;2.80;1.63;;;15.30;66.00;;;;;;5070581;28;20052;-73
2022/10/12 08:01:45;;;;;;;2.20;1.45;;;15.30;63.10;;;;;;5069626;28;20500;-73
2022/10/12 08:04:11;;;;;;;2.15;1.55;;;15.30;63.20;;;;;;5067864;28;20072;-73
2022/10/12 08:06:38;;;;;;;2.88;1.60;;;15.30;63.10;;;;;;5073939;28;20048;-73
2022/10/12 08:09:05;;;;;;;2.75;1.58;;;15.40;65.10;;;;;;5073169;28;20084;-72
2022/10/12 08:11:31;;;;;;;2.50;1.48;;;15.40;63.20;;;;;;5072607;28;20420;-72
2022/10/12 08:13:58;;;;;;;3.00;1.88;;;15.40;63.20;;;;;;5072635;28;20088;-72
2022/10/12 08:16:25;;;;;;;2.10;1.60;;;15.40;63.10;;;;;;5072557;28;20484;-73
2022/10/12 08:18:53;;;;;;;2.78;1.75;;;16.30;63.60;;;;;;5072163;28;20504;-72
2022/10/12 08:21:20;;;;;;;2.55;1.60;;;15.40;63.10;;;;;;5074725;28;20382;-72
2022/10/12 08:23:47;;;;;;;2.85;1.60;;;15.40;63.10;;;;;;5073774;28;20132;-74
2022/10/12 08:26:14;;;;;;;2.17;1.50;;;15.50;63.10;;;;;;5073578;28;20084;-72
2022/10/12 08:28:41;;;;;;;2.45;1.60;;;15.50;63.10;;;;;;5057515;28;20424;-73
2022/10/12 08:31:08;;;;;;;3.60;1.65;;;15.50;63.10;;;;;;5074249;28;20044;-72
2022/10/12 08:33:35;;;;;;;2.97;1.83;;;15.50;63.10;;;;;;5073169;28;20070;-72
2022/10/12 08:36:04;;;;;;;3.35;1.73;;;15.50;63.10;;;;;;5075006;28;20059;-72
2022/10/12 08:38:31;;;;;;;2.33;1.60;;;15.50;66.20;;;;;;5073337;28;20545;-72
2022/10/12 08:41:01;;;;;;;2.13;1.60;;;15.50;63.10;;;;;;5073513;28;20057;-73
2022/10/12 08:43:32;;;;;;;3.35;1.70;;;15.60;63.10;;;;;;5073561;28;20048;-73
2022/10/12 08:45:59;;;;;;;2.50;1.52;;;15.60;63.10;;;;;;5074222;28;20049;-73
2022/10/12 08:48:27;;;;;;;4.63;1.70;;;15.60;63.20;;;;;;5073603;28;20067;-72
2022/10/12 08:50:55;;;;;;;4.80;1.65;;;15.70;63.30;;;;;;5072921;28;20057;-73
2022/10/12 08:53:25;;;;;;;5.68;1.80;;;15.80;63.50;;;;;;5073139;28;20135;-73
2022/10/12 08:55:52;;;;;;;6.43;2.30;;;15.80;63.50;;;;;;5074521;28;20413;-74
2022/10/12 08:58:20;;;;;;;2.58;1.80;;;15.90;63.40;;;;;;5072712;28;20056;-74
2022/10/12 09:00:48;;;;;;;3.67;1.60;;;15.90;63.20;;;;;;5072368;28;20474;-74
2022/10/12 09:03:21;;;;;;;6.03;1.70;;;16.00;63.20;;;;;;5069196;28;20062;-74
2022/10/12 09:05:50;;;;;;;8.85;1.63;;;16.00;63.20;;;;;;5072936;28;20397;-74
2022/10/12 09:08:24;;;;;;;4.60;1.77;;;16.00;63.30;;;;;;5073130;28;20063;-75
2022/10/12 09:10:55;;;;;;;7.30;1.70;;;16.10;63.40;;;;;;5072614;28;20048;-76
2022/10/12 09:13:33;;;;;;;3.55;1.75;;;16.10;63.20;;;;;;5073173;28;20052;-76
2022/10/12 09:16:02;;;;;;;3.45;1.90;;;16.20;63.20;;;;;;5071493;28;20052;-75
2022/10/12 09:18:33;;;;;;;4.90;1.90;;;16.20;63.30;;;;;;5073105;28;20135;-76
2022/10/12 09:21:01;;;;;;;7.88;2.00;;;16.30;63.40;;;;;;5052820;28;20107;-76
2022/10/12 09:23:30;;;;;;;2.38;1.63;;;16.40;63.40;;;;;;5052661;28;20132;-74
2022/10/12 09:26:00;;;;;;;9.10;4.72;;;16.50;64.10;;;;;;5051701;28;20128;-74
2022/10/12 09:28:29;;;;;;;7.88;4.45;;;16.50;64.10;;;;;;5058337;28;20070;-75
2022/10/12 09:31:03;;;;;;;36.95;33.05;;;16.60;63.90;;;;;;5071568;28;20054;-74
2022/10/12 09:33:30;;;;;;;32.00;27.90;;;16.60;63.60;;;;;;5069270;28;20048;-74
2022/10/12 09:35:57;;;;;;;18.77;16.83;;;16.60;63.60;;;;;;5072303;28;20048;-74
2022/10/12 09:38:24;;;;;;;9.52;7.75;;;16.50;63.50;;;;;;5073127;28;20412;-74
2022/10/12 09:40:52;;;;;;;10.15;8.63;;;16.50;63.50;;;;;;5068797;28;20055;-74
2022/10/12 09:43:18;;;;;;;6.35;3.40;;;16.60;63.50;;;;;;5071753;28;20684;-74
2022/10/12 09:45:45;;;;;;;10.93;9.60;;;16.50;63.60;;;;;;5071633;28;20053;-74
2022/10/12 09:48:14;;;;;;;11.00;9.50;;;16.50;63.50;;;;;;5068860;28;20060;-74
2022/10/12 09:50:42;;;;;;;12.80;7.30;;;16.50;66.20;;;;;;5069129;28;20051;-74
2022/10/12 09:53:13;;;;;;;7.95;6.00;;;16.50;63.40;;;;;;5071694;28;20048;-75
2022/10/12 09:55:40;;;;;;;6.53;5.13;;;16.50;63.40;;;;;;5068853;28;20501;-74
2022/10/12 09:58:16;;;;;;;4.70;3.42;;;16.50;63.40;;;;;;5070089;28;20140;-74
2022/10/12 10:00:43;;;;;;;3.58;2.30;;;16.50;63.30;;;;;;5070125;28;20408;-73
2022/10/12 10:03:13;;;;;;;4.45;3.38;;;16.50;63.50;;;;;;5072380;28;20123;-73
2022/10/12 10:05:40;;;;;;;6.30;3.20;;;16.60;63.40;;;;;;5068757;28;20051;-73
2022/10/12 10:08:17;;;;;;;5.50;3.33;;;16.60;63.30;;;;;;5072048;28;20394;-73
2022/10/12 10:10:47;;;;;;;4.18;2.42;;;16.60;63.20;;;;;;5070810;28;20120;-73
2022/10/12 10:13:15;;;;;;;3.40;2.05;;;16.60;63.30;;;;;;5070066;28;20147;-73
2022/10/12 10:15:43;;;;;;;3.88;2.13;;;16.60;63.30;;;;;;5071609;28;20097;-74
2022/10/12 10:18:20;;;;;;;3.78;2.58;;;16.70;63.30;;;;;;5071116;28;20048;-74
2022/10/12 10:20:50;;;;;;;6.40;2.38;;;16.70;63.20;;;;;;5068946;28;20052;-74
2022/10/12 10:23:23;;;;;;;3.45;1.90;;;16.70;63.30;;;;;;5070489;28;20052;-74
2022/10/12 10:25:55;;;;;;;8.70;2.20;;;16.70;63.30;;;;;;5070600;28;20051;-75
2022/10/12 10:28:24;;;;;;;3.60;2.00;;;16.80;63.50;;;;;;5071312;28;20059;-74
2022/10/12 10:30:59;;;;;;;3.10;2.00;;;16.80;63.50;;;;;;5070040;28;20055;-73
2022/10/12 10:33:44;;;;;;;4.00;2.20;;;16.80;63.30;;;;;;5072296;28;20547;-75
2022/10/12 10:36:30;;;;;;;4.15;1.98;;;16.80;63.50;;;;;;5072285;28;20052;-74
2022/10/12 10:39:22;;;;;;;;;;;16.80;63.60;;;;;;5072743;28;20060;-73
2022/10/12 10:42:11;;;;;;;2.78;1.60;;;16.70;63.60;;;;;;5072380;28;19931;-73
2022/10/12 10:44:59;;;;;;;3.92;2.20;;;16.70;63.70;;;;;;5072357;28;20048;-74
2022/10/12 10:47:45;;;;;;;3.10;1.73;;;16.80;63.70;;;;;;5072011;28;20106;-74
2022/10/12 10:50:24;;;;;;;2.83;1.90;;;16.80;63.60;;;;;;5070528;28;20060;-74
2022/10/12 10:52:54;;;;;;;3.25;1.80;;;16.80;63.40;;;;;;5071045;28;20131;-74
2022/10/12 10:55:21;;;;;;;3.55;1.65;;;16.80;63.40;;;;;;5071137;28;20652;-74
2022/10/12 10:57:53;;;;;;;4.28;1.70;;;16.80;63.30;;;;;;5071238;28;20080;-73
2022/10/12 11:00:22;;;;;;;2.88;1.77;;;16.80;63.20;;;;;;5070740;28;20055;-73
2022/10/12 11:02:50;;;;;;;2.25;1.60;;;16.90;63.30;;;;;;5070939;28;20066;-73
2022/10/12 11:05:18;;;;;;;3.13;1.77;;;16.90;63.30;;;;;;5071032;28;20052;-72
2022/10/12 11:07:47;;;;;;;3.55;1.85;;;16.90;63.20;;;;;;5069977;28;20052;-71
2022/10/12 11:10:19;;;;;;;3.80;1.98;;;17.00;63.30;;;;;;5070945;28;20540;-71
2022/10/12 11:12:48;;;;;;;3.63;1.92;;;17.00;63.10;;;;;;5068576;28;20136;-71
2022/10/12 11:15:18;;;;;;;3.70;1.70;;;17.00;63.20;;;;;;5070214;28;20053;-72
2022/10/12 11:17:47;;;;;;;4.93;1.60;;;17.00;63.10;;;;;;5069929;28;20045;-71
2022/10/12 11:20:36;;;;;;;2.55;1.52;;;17.00;63.30;;;;;;5069813;28;20066;-72
2022/10/12 11:23:04;;;;;;;3.90;1.60;;;17.00;63.20;;;;;;5069035;28;20040;-72
2022/10/12 11:25:32;;;;;;;2.80;1.90;;;17.00;63.30;;;;;;5070124;28;20080;-71
2022/10/12 11:27:59;;;;;;;3.15;1.52;;;17.00;63.30;;;;;;5068487;28;20047;-73
2022/10/12 11:30:28;;;;;;;5.22;1.63;;;17.00;63.80;;;;;;5070287;28;20098;-74
2022/10/12 11:32:59;;;;;;;2.38;1.35;;;17.00;63.30;;;;;;5070554;28;20059;-71
2022/10/12 11:35:27;;;;;;;2.28;1.40;;;17.00;63.20;;;;;;5070302;28;20073;-72
2022/10/12 11:37:57;;;;;;;4.90;2.13;;;17.00;63.10;;;;;;5071633;28;20493;-72
2022/10/12 11:40:25;;;;;;;2.45;1.60;;;17.00;63.00;;;;;;5073880;28;20128;-72
2022/10/12 11:42:52;;;;;;;1.73;1.60;;;16.90;63.00;;;;;;5074532;28;20048;-72
2022/10/12 11:45:22;;;;;;;5.78;1.50;;;16.90;63.00;;;;;;5074581;28;20052;-72
2022/10/12 11:47:48;;;;;;;2.60;1.40;;;16.90;63.00;;;;;;5075663;28;20502;-73
2022/10/12 11:50:25;;;;;;;1.98;1.38;;;16.90;63.00;;;;;;5075337;28;20516;-71
2022/10/12 11:52:52;;;;;;;2.50;1.40;;;16.90;62.90;;;;;;5075495;28;20067;-72
2022/10/12 11:55:38;;;;;;;2.65;1.60;;;16.90;62.90;;;;;;5075432;28;20044;-72
2022/10/12 11:58:07;;;;;;;2.30;1.65;;;16.90;62.80;;;;;;5074546;28;20075;-71
2022/10/12 12:00:37;;;;;;;2.60;1.35;;;16.90;62.90;;;;;;5073901;28;20063;-73
2022/10/12 12:03:09;;;;;;;3.55;1.35;;;16.90;62.80;;;;;;5073844;28;20056;-73
2022/10/12 12:05:37;;;;;;;3.47;1.60;;;16.90;63.00;;;;;;5074035;28;20423;-73
2022/10/12 12:08:04;;;;;;;4.93;1.65;;;16.90;63.30;;;;;;5075133;28;20045;-73
2022/10/12 12:10:54;;;;;;;2.85;1.35;;;16.90;63.60;;;;;;5074898;28;20523;-73
2022/10/12 12:13:25;;;;;;;3.47;1.38;;;17.00;64.00;;;;;;5073968;28;20118;-73
2022/10/12 12:16:29;;;;;;;3.53;1.42;;;17.00;64.30;;;;;;5074378;28;20059;-72
2022/10/12 12:19:37;;;;;;;1.98;1.30;;;17.10;64.50;;;;;;5073797;28;20052;-74
2022/10/12 12:22:27;;;;;;;2.90;1.50;;;17.10;64.50;;;;;;5073540;28;20479;-74
2022/10/12 12:25:03;;;;;;;3.20;1.63;;;17.10;64.50;;;;;;5073354;28;20053;-74
2022/10/12 12:27:37;;;;;;;3.17;1.75;;;17.10;64.60;;;;;;5073948;28;20053;-75
2022/10/12 12:30:17;;;;;;;3.08;1.60;;;17.20;64.80;;;;;;5073685;28;20471;-74
2022/10/12 12:32:45;;;;;;;3.45;1.30;;;17.20;64.80;;;;;;5073242;28;20068;-74
2022/10/12 12:35:24;;;;;;;2.97;1.30;;;17.30;64.90;;;;;;5073875;28;20063;-75
2022/10/12 12:38:05;;;;;;;3.97;1.20;;;17.30;65.00;;;;;;5073643;28;20059;-75
2022/10/12 12:40:32;;;;;;;2.35;1.15;;;17.30;65.00;;;;;;5073395;28;20132;-75
2022/10/12 12:43:21;;;;;;;3.42;1.40;;;17.30;65.10;;;;;;5072959;28;20488;-75
2022/10/12 12:45:55;;;;;;;2.22;1.40;;;17.40;65.10;;;;;;5070738;28;20548;-75
2022/10/12 12:48:56;;;;;;;2.97;1.38;;;17.30;65.00;;;;;;5072853;28;20135;-75
2022/10/12 12:51:24;;;;;;;2.20;1.30;;;17.30;64.90;;;;;;5064052;28;20401;-75
2022/10/12 12:53:53;;;;;;;2.42;1.42;;;17.30;64.90;;;;;;5072225;28;20054;-75
2022/10/12 12:56:21;;;;;;;2.50;1.33;;;17.30;64.80;;;;;;5073128;28;20139;-75
2022/10/12 12:59:01;;;;;;;5.35;1.50;;;17.30;64.70;;;;;;5073984;28;20123;-75